Time;durP1;ratioP1;P1;durP2;ratioP2;P2;SDS_P1;SDS_P2;PMS_P1;PMS_P2;Temp;Humidity;BMP_temperature;BMP_pressure;BME280_temperature;BME280_humidity;BME280_pressure;Samples;Min_cycle;Max_cycle;Signal;HPM_P1;HPM_P2
2021/12/30 00:01:56;;;;;;;1.35;0.63;;;12.20;56.80;;;;;;20753253;28;20137;-84
2021/12/30 00:11:57;;;;;;;1.17;0.75;;;12.10;56.80;;;;;;20742848;28;20042;-84
2021/12/30 00:21:57;;;;;;;0.75;0.60;;;12.10;56.90;;;;;;20746451;28;20076;-83
2021/12/30 00:31:58;;;;;;;0.82;0.55;;;12.10;57.00;;;;;;20730514;28;20038;-83
2021/12/30 00:41:58;;;;;;;0.85;0.50;;;12.10;57.10;;;;;;20761489;28;20088;-83
2021/12/30 00:51:59;;;;;;;1.88;1.00;;;12.10;57.20;;;;;;20728823;28;20045;-84
2021/12/30 01:01:59;;;;;;;0.57;0.43;;;12.10;57.30;;;;;;20744281;28;20053;-84
2021/12/30 01:12:00;;;;;;;1.20;0.70;;;12.10;57.40;;;;;;20760696;28;20351;-83
2021/12/30 01:22:01;;;;;;;0.95;0.77;;;12.00;57.40;;;;;;20725187;28;20436;-84
2021/12/30 01:32:01;;;;;;;0.97;0.80;;;12.00;57.50;;;;;;20742689;28;20034;-83
2021/12/30 01:42:02;;;;;;;1.48;0.75;;;12.00;57.70;;;;;;20725107;28;20363;-83
2021/12/30 01:52:03;;;;;;;1.67;0.55;;;12.00;57.70;;;;;;20723442;28;20088;-84
2021/12/30 02:02:04;;;;;;;2.03;0.95;;;12.00;57.80;;;;;;20724017;28;20034;-83
2021/12/30 02:12:06;;;;;;;1.95;0.90;;;12.00;57.80;;;;;;20738989;28;20056;-84
2021/12/30 02:22:06;;;;;;;1.20;0.68;;;12.00;57.90;;;;;;20738110;28;20492;-84
2021/12/30 02:32:07;;;;;;;1.83;0.93;;;12.00;58.10;;;;;;20737692;28;20034;-83
2021/12/30 02:42:08;;;;;;;1.13;1.00;;;12.00;58.20;;;;;;20720833;28;20080;-83
2021/12/30 02:52:08;;;;;;;1.80;1.13;;;12.00;58.20;;;;;;20719008;28;20292;-85
2021/12/30 03:02:09;;;;;;;3.75;0.98;;;12.00;58.30;;;;;;20719959;28;20491;-83
2021/12/30 03:12:10;;;;;;;5.30;1.20;;;12.00;58.50;;;;;;20719295;28;20645;-83
2021/12/30 03:22:12;;;;;;;7.60;1.00;;;12.00;58.60;;;;;;20703311;28;20042;-84
2021/12/30 03:32:12;;;;;;;1.95;1.20;;;11.90;58.80;;;;;;20702628;28;20289;-82
2021/12/30 03:42:16;;;;;;;2.33;1.30;;;11.90;59.10;;;;;;20738268;28;20072;-82
2021/12/30 03:52:23;;;;;;;4.30;1.45;;;11.90;59.30;;;;;;20716897;28;20548;-83
2021/12/30 04:02:24;;;;;;;3.47;1.00;;;11.90;59.50;;;;;;20717741;28;20045;-82
2021/12/30 04:12:24;;;;;;;3.70;1.23;;;11.90;59.70;;;;;;20748598;28;20034;-83
2021/12/30 04:22:25;;;;;;;3.40;1.08;;;11.90;60.50;;;;;;20732019;28;20061;-83
2021/12/30 04:32:26;;;;;;;2.00;1.02;;;11.80;60.00;;;;;;20747593;28;20025;-84
2021/12/30 04:42:26;;;;;;;1.58;0.90;;;11.80;60.00;;;;;;20670414;28;20121;-84
2021/12/30 04:52:27;;;;;;;8.75;1.85;;;11.80;60.20;;;;;;20663502;28;20031;-83
2021/12/30 05:02:38;;;;;;;1.42;0.80;;;11.80;60.30;;;;;;20647002;28;20041;-83
2021/12/30 05:12:39;;;;;;;1.60;0.80;;;11.80;60.50;;;;;;20664716;28;20030;-85
2021/12/30 05:22:40;;;;;;;2.45;1.00;;;12.40;59.20;;;;;;20662449;28;20545;-84
2021/12/30 05:32:41;;;;;;;1.95;1.15;;;13.50;56.70;;;;;;20661087;28;20533;-83
2021/12/30 05:42:42;;;;;;;1.77;0.95;;;14.50;54.00;;;;;;20643301;28;20042;-81
2021/12/30 05:52:43;;;;;;;1.83;0.93;;;15.40;51.50;;;;;;20642227;28;20037;-83
2021/12/30 06:02:44;;;;;;;3.05;1.02;;;16.00;50.00;;;;;;20642509;28;20622;-83
2021/12/30 06:12:45;;;;;;;3.53;0.80;;;16.10;49.30;;;;;;20626134;28;20034;-85
2021/12/30 06:22:46;;;;;;;2.17;1.02;;;16.10;49.10;;;;;;20641363;28;20034;-83
2021/12/30 06:32:47;;;;;;;2.75;0.90;;;16.00;49.10;;;;;;20640277;28;20038;-84
2021/12/30 06:42:47;;;;;;;6.10;1.67;;;15.40;50.10;;;;;;20640069;28;20125;-85
2021/12/30 06:52:48;;;;;;;3.92;0.90;;;14.60;51.60;;;;;;20639757;28;20037;-84
2021/12/30 07:02:48;;;;;;;2.30;0.73;;;13.90;53.20;;;;;;20623191;28;20483;-84
2021/12/30 07:12:49;;;;;;;2.92;0.75;;;13.40;54.60;;;;;;20638367;28;20034;-84
2021/12/30 07:22:49;;;;;;;1.17;0.60;;;12.90;55.70;;;;;;20653538;28;20030;-83
2021/12/30 07:32:50;;;;;;;3.15;1.00;;;12.70;56.70;;;;;;20637665;28;20500;-83
2021/12/30 07:42:51;;;;;;;2.97;1.00;;;12.50;57.30;;;;;;20638678;28;20084;-83
2021/12/30 07:52:53;;;;;;;1.60;1.00;;;12.40;57.80;;;;;;20731787;28;20026;-84
2021/12/30 08:02:53;;;;;;;4.15;0.90;;;12.40;58.10;;;;;;20728180;28;20038;-82
2021/12/30 08:12:54;;;;;;;2.50;0.80;;;12.40;58.20;;;;;;20698271;28;20064;-84
2021/12/30 08:22:56;;;;;;;2.88;0.88;;;12.40;58.30;;;;;;20714803;28;20051;-81
2021/12/30 08:32:57;;;;;;;4.80;1.30;;;12.40;58.40;;;;;;20723395;28;20060;-79
2021/12/30 08:42:57;;;;;;;1.85;0.70;;;12.40;58.80;;;;;;20708205;28;20041;-80
2021/12/30 08:52:58;;;;;;;6.25;1.17;;;12.40;59.00;;;;;;20715578;28;20087;-80
2021/12/30 09:03:00;;;;;;;2.88;1.35;;;12.40;59.40;;;;;;20702590;28;20125;-77
2021/12/30 09:13:01;;;;;;;5.35;1.80;;;12.30;59.50;;;;;;20706604;28;20049;-78
2021/12/30 09:23:03;;;;;;;2.85;1.48;;;12.30;59.80;;;;;;20722529;28;20037;-77
2021/12/30 09:33:04;;;;;;;3.65;1.88;;;12.30;59.90;;;;;;20722692;28;20390;-78
2021/12/30 09:43:04;;;;;;;3.07;1.30;;;12.30;60.20;;;;;;20737010;28;20037;-77
2021/12/30 09:53:05;;;;;;;1.92;1.63;;;12.30;60.40;;;;;;20730926;28;20327;-79
2021/12/30 10:03:06;;;;;;;4.05;1.60;;;12.30;60.60;;;;;;20702176;28;20473;-81
2021/12/30 10:13:29;;;;;;;7.35;2.30;;;12.20;60.50;;;;;;20668713;28;20026;-81
2021/12/30 10:23:29;;;;;;;4.20;1.33;;;12.20;61.00;;;;;;20670928;28;20045;-82
2021/12/30 10:33:30;;;;;;;1.35;1.05;;;12.20;61.10;;;;;;20672842;28;20536;-81
2021/12/30 10:43:37;;;;;;;3.58;1.35;;;12.20;61.20;;;;;;20700076;28;20092;-80
2021/12/30 10:53:38;;;;;;;4.70;1.33;;;12.20;61.40;;;;;;20711192;28;20062;-79
2021/12/30 11:03:42;;;;;;;3.63;1.50;;;12.20;61.60;;;;;;20723702;28;20041;-82
2021/12/30 11:14:01;;;;;;;5.20;1.40;;;12.20;61.60;;;;;;20709978;28;20038;-75
2021/12/30 11:24:02;;;;;;;4.30;1.52;;;12.80;60.50;;;;;;20707136;28;20389;-73
2021/12/30 11:34:03;;;;;;;2.83;1.20;;;13.60;59.40;;;;;;21293721;22;20058;-75
2021/12/30 11:44:06;;;;;;;2.15;1.40;;;14.30;57.30;;;;;;20956816;28;20823;-76
2021/12/30 11:54:31;;;;;;;2.58;1.70;;;15.00;56.20;;;;;;20956789;28;20032;-76
2021/12/30 12:04:32;;;;;;;2.05;1.20;;;15.40;55.70;;;;;;20997560;28;20040;-74
2021/12/30 12:14:35;;;;;;;2.37;1.37;;;15.50;54.80;;;;;;20970058;28;20090;-74
2021/12/30 12:24:38;;;;;;;2.15;1.50;;;15.30;54.50;;;;;;20970475;28;20640;-79
2021/12/30 12:34:41;;;;;;;1.25;0.77;;;15.10;54.70;;;;;;20952464;28;20067;-74
2021/12/30 12:45:10;;;;;;;2.97;1.10;;;14.70;55.70;;;;;;20927639;28;20090;-79
2021/12/30 12:55:18;;;;;;;2.63;1.05;;;14.00;57.00;;;;;;20930563;28;20115;-80
2021/12/30 13:05:27;;;;;;;1.63;0.88;;;13.50;58.30;;;;;;20968846;28;20513;-80
2021/12/30 13:15:28;;;;;;;1.25;0.70;;;13.10;59.40;;;;;;20952310;28;20032;-81
2021/12/30 13:25:35;;;;;;;0.47;0.43;;;12.90;60.30;;;;;;20984752;28;20520;-79
2021/12/30 13:35:37;;;;;;;2.20;0.70;;;12.70;61.20;;;;;;20962610;28;20043;-80
2021/12/30 13:45:44;;;;;;;1.05;0.52;;;12.60;62.20;;;;;;20982483;28;20064;-79
2021/12/30 13:55:49;;;;;;;1.47;0.67;;;12.50;63.10;;;;;;20972728;28;20041;-87
2021/12/30 14:05:51;;;;;;;1.80;1.10;;;12.50;64.30;;;;;;20953302;28;20101;-81
2021/12/30 14:15:54;;;;;;;1.33;0.85;;;12.70;66.10;;;;;;20964434;28;20090;-80
2021/12/30 14:25:55;;;;;;;2.95;1.02;;;12.70;67.10;;;;;;20903913;28;20454;-78
2021/12/30 14:36:16;;;;;;;1.30;0.82;;;12.70;67.70;;;;;;20972998;28;20124;-78
2021/12/30 14:46:17;;;;;;;0.93;0.65;;;12.70;67.90;;;;;;20965633;28;20044;-78
2021/12/30 14:56:17;;;;;;;2.85;1.00;;;12.60;68.10;;;;;;20909435;28;20426;-78
2021/12/30 15:06:18;;;;;;;1.97;1.10;;;12.50;68.80;;;;;;20890972;28;20033;-77
2021/12/30 15:16:19;;;;;;;2.38;1.35;;;12.50;69.70;;;;;;20873115;28;20287;-77
2021/12/30 15:26:20;;;;;;;4.68;1.30;;;12.50;69.70;;;;;;20952099;28;20051;-77
2021/12/30 15:36:21;;;;;;;2.10;1.33;;;12.40;69.70;;;;;;20940053;28;20036;-78
2021/12/30 15:46:21;;;;;;;3.53;1.45;;;12.40;69.90;;;;;;20946138;28;20394;-78
2021/12/30 15:56:22;;;;;;;3.63;1.45;;;12.90;69.20;;;;;;20929785;28;20099;-78
2021/12/30 16:06:24;;;;;;;2.80;1.60;;;13.50;67.60;;;;;;20971702;28;20036;-78
2021/12/30 16:16:25;;;;;;;3.05;1.50;;;14.10;66.20;;;;;;21004102;28;20287;-77
2021/12/30 16:26:26;;;;;;;1.83;1.17;;;14.50;65.00;;;;;;20940608;28;20043;-77
2021/12/30 16:36:28;;;;;;;5.65;1.60;;;14.70;64.40;;;;;;20920202;28;20056;-77
2021/12/30 16:46:29;;;;;;;3.55;1.40;;;14.70;64.10;;;;;;20870511;28;20513;-78
2021/12/30 16:56:30;;;;;;;1.25;0.88;;;14.50;64.40;;;;;;20894982;28;20071;-83
2021/12/30 17:06:30;;;;;;;3.38;1.00;;;14.10;65.50;;;;;;20918933;28;20123;-77
2021/12/30 17:16:31;;;;;;;3.35;1.40;;;13.60;66.80;;;;;;20925841;28;20527;-79
2021/12/30 17:26:31;;;;;;;2.60;1.30;;;13.20;68.10;;;;;;20931193;28;20028;-76
2021/12/30 17:36:32;;;;;;;2.23;1.10;;;12.90;69.00;;;;;;20895536;28;20761;-74
2021/12/30 17:46:34;;;;;;;1.63;1.23;;;12.80;69.90;;;;;;20898377;28;20291;-73
2021/12/30 17:56:36;;;;;;;1.60;1.13;;;12.70;70.50;;;;;;20865683;28;20060;-73
2021/12/30 18:06:36;;;;;;;2.72;0.98;;;12.50;71.10;;;;;;20907802;28;20128;-77
2021/12/30 18:16:38;;;;;;;1.87;1.27;;;12.40;71.50;;;;;;20897701;28;20028;-81
2021/12/30 18:26:39;;;;;;;4.78;1.85;;;12.40;71.90;;;;;;20940808;28;20302;-79
2021/12/30 18:36:39;;;;;;;2.37;1.27;;;12.30;72.10;;;;;;20954699;28;20143;-79
2021/12/30 18:46:41;;;;;;;1.88;1.25;;;12.40;72.20;;;;;;20956325;28;20287;-78
2021/12/30 18:56:42;;;;;;;1.92;1.45;;;12.40;72.10;;;;;;20991018;28;20024;-78
2021/12/30 19:06:43;;;;;;;2.37;1.53;;;12.50;72.10;;;;;;20913577;28;20049;-80
2021/12/30 19:16:45;;;;;;;6.65;2.03;;;12.40;71.90;;;;;;20883915;28;20865;-79
2021/12/30 19:26:48;;;;;;;1.55;1.10;;;12.40;71.70;;;;;;20987522;28;20037;-79
2021/12/30 19:36:49;;;;;;;3.53;1.00;;;12.40;71.50;;;;;;20940031;28;20125;-80
2021/12/30 19:46:52;;;;;;;2.97;1.00;;;12.40;71.40;;;;;;20972262;28;20390;-79
2021/12/30 19:56:53;;;;;;;1.45;0.98;;;12.40;71.30;;;;;;20956013;28;20045;-80
2021/12/30 20:06:54;;;;;;;2.13;1.08;;;12.40;71.20;;;;;;20973540;28;20049;-82
2021/12/30 20:16:55;;;;;;;1.85;0.93;;;12.50;71.10;;;;;;20914531;28;20041;-83
2021/12/30 20:26:58;;;;;;;1.63;1.20;;;12.40;71.00;;;;;;20887619;28;20051;-84
2021/12/30 20:36:59;;;;;;;1.65;1.00;;;12.50;71.00;;;;;;20894981;28;20065;-88
2021/12/30 20:47:01;;;;;;;1.33;0.95;;;12.40;70.90;;;;;;20923326;28;20128;-82
2021/12/30 20:57:03;;;;;;;1.83;1.10;;;12.40;70.90;;;;;;20921525;28;20032;-81
2021/12/30 21:07:03;;;;;;;2.50;1.48;;;12.40;70.80;;;;;;20888493;28;20055;-79
2021/12/30 21:17:04;;;;;;;1.33;0.93;;;12.40;70.80;;;;;;20943269;28;20132;-82
2021/12/30 21:27:06;;;;;;;1.10;0.90;;;12.40;71.50;;;;;;20953876;28;20442;-81
2021/12/30 21:37:07;;;;;;;0.80;0.73;;;12.40;70.80;;;;;;20952372;28;20120;-82
2021/12/30 21:47:11;;;;;;;2.55;1.05;;;12.40;70.80;;;;;;20967357;28;20044;-82
2021/12/30 21:57:14;;;;;;;1.65;0.95;;;12.40;70.90;;;;;;20982469;28;20029;-80
2021/12/30 22:07:17;;;;;;;1.83;1.08;;;12.40;71.00;;;;;;20948361;28;20117;-80
2021/12/30 22:17:18;;;;;;;0.85;0.75;;;12.40;71.00;;;;;;20963781;28;20032;-80
2021/12/30 22:27:20;;;;;;;1.40;1.00;;;12.40;71.10;;;;;;20962706;28;20039;-80
2021/12/30 22:37:21;;;;;;;1.30;0.90;;;12.40;71.20;;;;;;20961630;28;20442;-80
2021/12/30 22:47:23;;;;;;;1.20;0.90;;;12.40;71.30;;;;;;20960947;28;20321;-80
2021/12/30 22:57:23;;;;;;;2.42;0.85;;;12.30;71.30;;;;;;20961299;28;20032;-80
2021/12/30 23:07:24;;;;;;;1.23;1.00;;;12.40;71.50;;;;;;20962105;28;20098;-81
2021/12/30 23:17:24;;;;;;;1.88;1.35;;;12.30;71.60;;;;;;20979560;28;20024;-79
2021/12/30 23:27:25;;;;;;;1.80;1.17;;;12.30;71.70;;;;;;20977933;28;20057;-81
2021/12/30 23:37:26;;;;;;;2.30;1.23;;;12.50;71.90;;;;;;20960623;28;20064;-81
2021/12/30 23:47:27;;;;;;;1.90;1.10;;;12.40;72.10;;;;;;20959994;28;20036;-81
2021/12/30 23:57:27;;;;;;;1.42;1.27;;;12.30;72.20;;;;;;20977031;28;20098;-81
